M I D A S
Marine Information and Data Acquisition System
Tripno 662 of the Zeeleeuw from 2004-03-08 09:01:07 to 2004-03-08 14:46:37
Back to CruiseResearch ActivitiesStationsMapUnderway DataData graphs

EquipmentUnitsComment
TimeDGPSUTC
LatitudeDGPSDM.mWGS84
LongitudeDGPSDM.mWGS84
HeadingGyrodeg 
SOGDGPSknotsSpeed over ground
COGDGPSdegCourse over ground
DepthEcho soundermeters200 kHz
Missing or incorrect values are displayed as -999
Navigation data collected by the RV Zeeleeuw from 2004-03-08 09:01:07 to 2004-03-08 14:46:37
Time Latitude Longitude Heading SOG COG Depth
2004-03-08 09:02:10 51°13.957 2°55.538 341.3 7.1 335 9.1
2004-03-08 09:03:09 51°14.062 2°55.46 342.2 7.2 336 10.1
2004-03-08 09:04:09 51°14.181 2°55.365 336 8.4 329 10.5
2004-03-08 09:05:09 51°14.295 2°55.193 317.2 11.1 311 10.3
2004-03-08 09:06:10 51°14.4 2°54.93 297.4 12.1 286 9.7
2004-03-08 09:07:09 51°14.411 2°54.619 266.2 11 257 9.4
2004-03-08 09:08:09 51°14.345 2°54.388 244.8 9 239 8.4
2004-03-08 09:09:09 51°14.243 2°54.126 246 13.8 244 7.9
2004-03-08 09:10:10 51°14.126 2°53.792 244.1 14.4 240 7.9
2004-03-08 09:11:09 51°14.043 2°53.438 257.9 14.7 249 8.1
2004-03-08 09:12:10 51°13.939 2°53.071 254.6 15.1 249 8.7
2004-03-08 09:13:09 51°13.841 2°52.707 251.6 15.3 244 9
2004-03-08 09:14:09 51°13.734 2°52.338 250.5 15.3 244 9.2
2004-03-08 09:15:09 51°13.628 2°51.964 250.5 15.4 244 9.6
2004-03-08 09:16:10 51°13.513 2°51.589 251.6 15.5 248 9.8
2004-03-08 09:17:10 51°13.401 2°51.221 251.2 15.4 245 9.8
2004-03-08 09:18:09 51°13.292 2°50.862 249.9 15.3 244 10.1
2004-03-08 09:19:09 51°13.182 2°50.501 249.1 15.2 246 10.3
2004-03-08 09:20:09 51°13.074 2°50.14 251.2 15 245 10.5
2004-03-08 09:21:09 51°12.966 2°49.784 251.2 14.9 244 10.6
2004-03-08 09:22:09 51°12.853 2°49.431 248.6 15 244 10.7
2004-03-08 09:23:09 51°12.735 2°49.08 246.5 15.1 239 10.9
2004-03-08 09:24:10 51°12.613 2°48.727 247.2 15.1 244 11.1
2004-03-08 09:25:09 51°12.493 2°48.383 246.4 15.2 240 11
2004-03-08 09:26:09 51°12.372 2°48.029 246 15.3 242 11.4
2004-03-08 09:27:10 51°12.25 2°47.666 246.7 15.3 241 11.5
2004-03-08 09:28:09 51°12.133 2°47.31 246.5 15.5 242 11.7
2004-03-08 09:29:09 51°12.012 2°46.946 245.5 15.6 240 11.8
2004-03-08 09:30:09 51°11.891 2°46.58 246.5 15.6 243 11.8
2004-03-08 09:31:10 51°11.767 2°46.205 246.3 15.8 242 11.7
2004-03-08 09:32:09 51°11.647 2°45.842 245.6 16 243 11.7
2004-03-08 09:33:09 51°11.528 2°45.475 246 15.5 242 11.6
2004-03-08 09:34:09 51°11.412 2°45.108 246.8 15.5 243 11.4
2004-03-08 09:35:09 51°11.298 2°44.74 248.2 15.6 244 11.1
2004-03-08 09:36:09 51°11.183 2°44.375 250.3 15.6 249 10.9
2004-03-08 09:37:10 51°11.082 2°43.992 250.6 15.3 248 11
2004-03-08 09:38:09 51°10.983 2°43.624 249.4 15.3 245 10.9
2004-03-08 09:39:09 51°10.882 2°43.252 250.1 15.3 245 10.6
2004-03-08 09:40:09 51°10.783 2°42.883 249.5 15.1 246 10.5
2004-03-08 09:41:10 51°10.681 2°42.508 250.3 15 247 10.5
2004-03-08 09:42:09 51°10.58 2°42.148 250.3 15.3 248 10.3
2004-03-08 09:43:10 51°10.483 2°41.769 251.3 15.1 247 10.3
2004-03-08 09:44:09 51°10.387 2°41.406 250 15.1 247 10.2
2004-03-08 09:45:09 51°10.286 2°41.04 248 15.2 248 10.3
2004-03-08 09:46:09 51°10.188 2°40.672 251.9 15.1 247 10.3
2004-03-08 09:47:09 51°10.087 2°40.308 248.7 15 247 10.2
2004-03-08 09:48:09 51°9.989 2°39.941 250.4 15 249 10.2
2004-03-08 09:49:09 51°9.893 2°39.573 250.7 15 247 10.3
2004-03-08 09:50:09 51°9.797 2°39.205 252 15 248 10.3
2004-03-08 09:51:10 51°9.699 2°38.832 250.3 15 248 10.3
2004-03-08 09:52:09 51°9.605 2°38.475 248.9 14.1 245 10.5
2004-03-08 09:53:10 51°9.501 2°38.3 208.1 6.1 210 10.7
2004-03-08 09:54:09 51°9.468 2°38.266 159.2 1.5 248 10.5
2004-03-08 09:55:09 51°9.458 2°38.232 158.9 1.5 240 10.5
2004-03-08 09:56:11 51°9.444 2°38.199 161.1 1.4 233 10.5
2004-03-08 09:57:10 51°9.428 2°38.17 160.4 1.5 223 10.5
2004-03-08 09:58:09 51°9.41 2°38.145 156.8 1.5 219 10.5
2004-03-08 09:59:10 51°9.39 2°38.122 150.3 1.5 217 10.5
2004-03-08 10:00:10 51°9.358 2°38.11 159 3.7 178 10.3
2004-03-08 10:01:10 51°9.262 2°38.037 225.1 8.3 228 9.8
2004-03-08 10:02:09 51°9.247 2°37.824 299.2 8.5 291 10.1
2004-03-08 10:03:09 51°9.354 2°37.722 5.2 7.7 355 10.9
2004-03-08 10:04:09 51°9.499 2°37.735 18.1 9.8 8 11.8
2004-03-08 10:05:10 51°9.675 2°37.736 7.6 10.3 357 14.3
2004-03-08 10:06:09 51°9.783 2°37.678 341.3 5.5 324 16
2004-03-08 10:07:10 51°9.828 2°37.585 323.9 4.1 303 16.1
2004-03-08 10:08:10 51°9.876 2°37.545 25.8 2.7 2 16.4
2004-03-08 10:09:09 51°9.893 2°37.586 91.6 2.3 103 16.5
2004-03-08 10:10:10 51°9.876 2°37.666 100.7 3.6 111 16.1
2004-03-08 10:11:09 51°9.859 2°37.757 100.8 3.1 113 16.1
2004-03-08 10:12:09 51°9.842 2°37.77 111.6 1.1 199 16.2
2004-03-08 10:13:09 51°9.824 2°37.759 125.8 1.2 198 16
2004-03-08 10:14:10 51°9.804 2°37.746 127.3 1.3 203 15.9
2004-03-08 10:15:10 51°9.784 2°37.734 123.1 1.3 193 15.5
2004-03-08 10:16:10 51°9.763 2°37.729 119 1.2 184 15.6
2004-03-08 10:17:10 51°9.741 2°37.733 114.7 1.4 168 15.3
2004-03-08 10:18:09 51°9.719 2°37.743 111.6 1.4 160 15.1
2004-03-08 10:19:09 51°9.697 2°37.757 109 1.4 154 14.7
2004-03-08 10:20:09 51°9.679 2°37.771 97.6 1 151 14.5
2004-03-08 10:21:09 51°9.667 2°37.784 85.7 0.7 143 14.4
2004-03-08 10:22:11 51°9.66 2°37.795 73.5 0.4 130 14.3
2004-03-08 10:23:09 51°9.662 2°37.806 55 0.6 43 14.2
2004-03-08 10:24:09 51°9.671 2°37.808 31.7 0.9 343 14.4
2004-03-08 10:25:10 51°9.688 2°37.786 359.2 1.6 308 14.8
2004-03-08 10:26:10 51°9.705 2°37.748 348.2 2 303 15.1
2004-03-08 10:27:09 51°9.725 2°37.703 344.3 2.1 305 15.4
2004-03-08 10:28:09 51°9.741 2°37.653 333.1 2 289 15.8
2004-03-08 10:29:09 51°9.747 2°37.602 314.8 1.9 273 16.2
2004-03-08 10:30:09 51°9.746 2°37.554 312.8 1.7 266 16.3
2004-03-08 10:31:10 51°9.742 2°37.51 310.7 1.5 257 16.3
2004-03-08 10:32:09 51°9.736 2°37.471 311.9 1.5 253 16.6
2004-03-08 10:33:10 51°9.728 2°37.434 312.3 1.6 250 16.6
2004-03-08 10:34:09 51°9.722 2°37.387 295.8 2.9 270 16.4
2004-03-08 10:35:09 51°9.701 2°37.297 233.6 3.9 231 16.4
2004-03-08 10:36:11 51°9.654 2°37.231 208.7 3.6 214 16.3
2004-03-08 10:37:10 51°9.6 2°37.192 193.8 3.9 201 16.3
2004-03-08 10:38:09 51°9.541 2°37.14 215.7 4.1 217 16
2004-03-08 10:39:10 51°9.494 2°37.065 232.7 3.7 229 16.1
2004-03-08 10:40:10 51°9.462 2°36.985 248.3 3.5 242 15.9
2004-03-08 10:41:11 51°9.438 2°36.902 257.6 3.3 248 15.9
2004-03-08 10:42:09 51°9.422 2°36.824 261.8 3.2 251 16.1
2004-03-08 10:43:09 51°9.401 2°36.748 247.3 3.2 244 16.2
2004-03-08 10:44:09 51°9.374 2°36.68 243.3 3 238 16.4
2004-03-08 10:45:10 51°9.35 2°36.611 251.8 3 243 16.2
2004-03-08 10:46:09 51°9.33 2°36.54 255.6 3 248 16.4
2004-03-08 10:47:10 51°9.309 2°36.466 256.2 3 246 16.2
2004-03-08 10:48:10 51°9.289 2°36.392 253.7 2.9 244 16.3
2004-03-08 10:49:09 51°9.267 2°36.322 249.6 3 244 16.4
2004-03-08 10:50:10 51°9.243 2°36.251 248.6 3 239 16.4
2004-03-08 10:51:09 51°9.219 2°36.181 248.9 3.1 241 16.5
2004-03-08 10:52:09 51°9.197 2°36.109 251.6 3 244 16.4
2004-03-08 10:53:09 51°9.174 2°36.037 248.2 3 240 16.4
2004-03-08 10:54:10 51°9.15 2°35.967 249.7 2.9 242 16.7
2004-03-08 10:55:11 51°9.126 2°35.896 250 3 243 16.7
2004-03-08 10:56:10 51°9.105 2°35.827 251 2.9 242 16.9
2004-03-08 10:57:10 51°9.083 2°35.759 248.9 3 244 16.8
2004-03-08 10:58:10 51°9.061 2°35.69 251.4 3 243 17.1
2004-03-08 10:59:10 51°9.04 2°35.619 251.9 2.9 245 16.9
2004-03-08 11:00:09 51°9.018 2°35.552 246.1 2.8 240 16.9
2004-03-08 11:01:09 51°8.994 2°35.486 245.4 2.9 242 17.2
2004-03-08 11:02:09 51°8.97 2°35.42 241.8 2.9 237 17.2
2004-03-08 11:03:10 51°8.944 2°35.355 242.6 2.9 240 17.3
2004-03-08 11:04:10 51°8.921 2°35.293 246.5 2.7 242 17
2004-03-08 11:05:10 51°8.902 2°35.23 253.3 2.6 250 17.3
2004-03-08 11:06:10 51°8.888 2°35.17 261.1 2.2 252 17.4
2004-03-08 11:07:10 51°8.879 2°35.114 270.4 2.1 262 17.7
2004-03-08 11:08:09 51°8.874 2°35.059 276.5 2.1 263 17.6
2004-03-08 11:09:10 51°8.872 2°35.011 284.3 1.8 271 17.5
2004-03-08 11:10:09 51°8.898 2°34.926 320 3.9 312 17.8
2004-03-08 11:11:09 51°8.933 2°34.877 337 2.2 325 17.9
2004-03-08 11:12:10 51°8.958 2°34.854 348.6 1.4 329 18.2
2004-03-08 11:13:09 51°8.974 2°34.84 354 1 330 17.7
2004-03-08 11:14:09 51°8.997 2°34.836 22.5 2.1 15 18.3
2004-03-08 11:15:09 51°9.021 2°34.887 82.4 2.8 89 18.4
2004-03-08 11:16:10 51°8.993 2°34.95 154.5 3.4 154 18.3
2004-03-08 11:17:09 51°8.945 2°34.948 199.3 2.9 194 18.1
2004-03-08 11:18:10 51°8.899 2°34.911 221.9 3.1 218 18
2004-03-08 11:19:10 51°8.863 2°34.851 236.6 3.2 229 18.2
2004-03-08 11:20:10 51°8.824 2°34.79 226.4 3.4 219 18.3
2004-03-08 11:21:09 51°8.777 2°34.739 216.5 3.4 212 18
2004-03-08 11:22:10 51°8.733 2°34.683 233.1 3.2 229 18.3
2004-03-08 11:23:10 51°8.709 2°34.611 256.3 3 250 18.6
2004-03-08 11:24:10 51°8.687 2°34.536 247.1 3.1 243 18.8
2004-03-08 11:25:09 51°8.663 2°34.464 244 3.1 238 19
2004-03-08 11:26:10 51°8.633 2°34.394 238.8 3.2 233 18.9
2004-03-08 11:27:10 51°8.602 2°34.326 242.5 3.2 236 18.8
2004-03-08 11:28:10 51°8.575 2°34.255 245.3 3.1 239 18.9
2004-03-08 11:29:09 51°8.549 2°34.185 246 3 239 18.9
2004-03-08 11:30:11 51°8.521 2°34.119 244.2 2.8 233 18.9
2004-03-08 11:31:10 51°8.496 2°34.058 246.8 2.9 238 19
2004-03-08 11:32:10 51°8.47 2°33.992 245.3 3 239 19
2004-03-08 11:33:09 51°8.444 2°33.924 245.4 3.1 238 18.8
2004-03-08 11:34:11 51°8.416 2°33.854 245.3 3.1 237 18.9
2004-03-08 11:35:10 51°8.388 2°33.786 245.1 3 236 19
2004-03-08 11:36:10 51°8.361 2°33.719 245.3 3 237 19
2004-03-08 11:37:11 51°8.333 2°33.652 246.2 3 238 19
2004-03-08 11:38:11 51°8.306 2°33.586 245.6 2.9 237 18.9
2004-03-08 11:39:09 51°8.283 2°33.522 246.6 2.9 240 18.9
2004-03-08 11:40:09 51°8.259 2°33.456 244.8 2.9 238 18.6
2004-03-08 11:41:09 51°8.233 2°33.394 243.6 2.7 233 18.9
2004-03-08 11:42:10 51°8.207 2°33.331 245 2.8 240 18.8
2004-03-08 11:43:09 51°8.183 2°33.268 245.6 2.8 239 18.5
2004-03-08 11:44:09 51°8.16 2°33.202 244.8 2.9 240 18.7
2004-03-08 11:45:11 51°8.135 2°33.134 245 2.8 238 18.8
2004-03-08 11:46:09 51°8.112 2°33.073 245.4 2.8 238 18.7
2004-03-08 11:47:09 51°8.088 2°33.008 246.6 2.8 242 18.7
2004-03-08 11:48:10 51°8.065 2°32.942 245.2 2.9 241 18.6
2004-03-08 11:49:10 51°8.043 2°32.877 245.3 2.8 243 18.5
2004-03-08 11:50:10 51°8.021 2°32.815 246.1 2.7 241 18.4
2004-03-08 11:51:09 51°8.005 2°32.751 254.4 2.6 255 18.2
2004-03-08 11:52:11 51°7.999 2°32.681 261.1 2.6 268 18.5
2004-03-08 11:53:09 51°7.996 2°32.622 260.8 2 267 19.1
2004-03-08 11:54:09 51°7.996 2°32.584 262.6 1.2 273 19
2004-03-08 11:55:10 51°8 2°32.561 266.9 0.7 298 19.3
2004-03-08 11:56:09 51°8.005 2°32.549 272.5 0.5 328 19.2
2004-03-08 11:57:09 51°8.014 2°32.545 281.6 0.7 353 19.3
2004-03-08 11:58:10 51°8.024 2°32.541 274.9 1.2 298 19.6
2004-03-08 11:59:10 51°7.991 2°32.527 185.2 3.7 163 19.3
2004-03-08 12:00:10 51°7.958 2°32.648 103.5 6.2 87 18.2
2004-03-08 12:01:09 51°7.998 2°32.828 84.3 9 79 18.4
2004-03-08 12:02:10 51°7.991 2°33.077 120.9 8.4 106 16.2
2004-03-08 12:03:09 51°7.928 2°33.139 210.4 3.1 199 14.3
2004-03-08 12:04:10 51°7.891 2°33.084 238.5 3.2 231 13.9
2004-03-08 12:05:10 51°7.863 2°33.016 246.7 3.1 242 14.1
2004-03-08 12:06:10 51°7.842 2°32.942 246.8 3.1 242 14.1
2004-03-08 12:07:10 51°7.818 2°32.869 243 3.1 237 14.1
2004-03-08 12:08:10 51°7.791 2°32.804 242.5 2.8 237 14.2
2004-03-08 12:09:10 51°7.767 2°32.74 244.9 2.7 237 14.2
2004-03-08 12:10:10 51°7.743 2°32.673 245.4 2.9 241 13.8
2004-03-08 12:11:09 51°7.72 2°32.606 246.9 3 245 14.3
2004-03-08 12:12:10 51°7.701 2°32.53 251.3 3.1 250 14.6
2004-03-08 12:13:10 51°7.684 2°32.452 251.5 3.1 251 14.5
2004-03-08 12:14:10 51°7.668 2°32.376 251.3 3 249 14.9
2004-03-08 12:15:10 51°7.65 2°32.302 250.7 3 249 14.8
2004-03-08 12:16:09 51°7.632 2°32.23 247.5 3 246 15
2004-03-08 12:17:09 51°7.609 2°32.158 246.8 3 241 15.1
2004-03-08 12:18:09 51°7.588 2°32.093 246.7 2.6 244 15.3
2004-03-08 12:19:11 51°7.568 2°32.032 247.5 2.5 246 14.7
2004-03-08 12:20:09 51°7.552 2°31.975 248.1 2.4 247 14.9
2004-03-08 12:21:09 51°7.536 2°31.918 246.9 2.3 247 15.1
2004-03-08 12:22:09 51°7.519 2°31.863 246.9 2.4 249 15
2004-03-08 12:23:11 51°7.502 2°31.805 247.3 2.3 246 15.2
2004-03-08 12:24:09 51°7.485 2°31.749 246.7 2.4 243 15.3
2004-03-08 12:25:11 51°7.466 2°31.691 249.2 2.5 247 15.1
2004-03-08 12:26:10 51°7.453 2°31.63 252.4 2.5 254 15.4
2004-03-08 12:27:10 51°7.439 2°31.568 248.5 2.6 249 14.9
2004-03-08 12:28:11 51°7.42 2°31.507 245.1 2.5 245 15.3
2004-03-08 12:29:10 51°7.412 2°31.445 265.6 2.5 277 15.1
2004-03-08 12:30:09 51°7.433 2°31.383 294.3 3 314 15.6
2004-03-08 12:31:11 51°7.484 2°31.34 322.8 3.7 345 16
2004-03-08 12:32:09 51°7.551 2°31.349 2.9 4.4 20 17.3
2004-03-08 12:33:10 51°7.61 2°31.396 13.9 3.4 32 18.5
2004-03-08 12:34:11 51°7.649 2°31.451 29.9 3 49 20.2
2004-03-08 12:35:10 51°7.683 2°31.531 66.7 4 63 20.7
2004-03-08 12:36:11 51°7.718 2°31.642 64 4.8 63 20.9
2004-03-08 12:37:09 51°7.749 2°31.757 83.7 4.8 75 20.3
2004-03-08 12:38:09 51°7.759 2°31.873 106.6 4.3 86 19.3
2004-03-08 12:39:10 51°7.769 2°31.984 94.1 4 80 17.9
2004-03-08 12:40:11 51°7.787 2°32.09 84.2 4 74 17.9
2004-03-08 12:41:10 51°7.806 2°32.188 79.6 3.9 73 18.1
2004-03-08 12:42:09 51°7.829 2°32.282 72.5 3.8 66 18.4
2004-03-08 12:43:11 51°7.857 2°32.375 65.1 3.6 64 18.5
2004-03-08 12:44:09 51°7.885 2°32.457 61.7 3.6 61 18.8
2004-03-08 12:45:10 51°7.917 2°32.542 59.4 3.7 58 18.8
2004-03-08 12:46:10 51°7.949 2°32.625 61.5 3.6 59 18.8
2004-03-08 12:47:10 51°7.978 2°32.709 63 3.7 59 18.5
2004-03-08 12:48:10 51°8.008 2°32.795 65.3 3.7 62 19.1
2004-03-08 12:49:09 51°8.035 2°32.882 67.6 3.7 64 19.1
2004-03-08 12:50:10 51°8.062 2°32.972 66.9 3.7 67 19.2
2004-03-08 12:51:10 51°8.089 2°33.062 65.4 3.8 66 19.3
2004-03-08 12:52:09 51°8.118 2°33.148 62.5 3.8 61 19.4
2004-03-08 12:53:11 51°8.149 2°33.238 62.7 3.8 62 19.3
2004-03-08 12:54:10 51°8.177 2°33.323 66.1 3.7 62 19.5
2004-03-08 12:55:10 51°8.205 2°33.41 61.7 3.7 60 19.4
2004-03-08 12:56:09 51°8.235 2°33.494 60.8 3.7 61 19.6
2004-03-08 12:57:09 51°8.266 2°33.579 59.6 3.7 59 19.6
2004-03-08 12:58:09 51°8.298 2°33.666 59.8 3.9 60 19.7
2004-03-08 12:59:11 51°8.331 2°33.756 59.1 3.8 61 20
2004-03-08 13:00:11 51°8.362 2°33.841 56.5 3.4 60 19.9
2004-03-08 13:01:10 51°8.39 2°33.919 52.9 3.5 58 20
2004-03-08 13:02:11 51°8.423 2°34 48.8 3.7 56 20
2004-03-08 13:03:10 51°8.461 2°34.078 38.9 3.9 49 20.2
2004-03-08 13:04:09 51°8.505 2°34.161 46 4.3 51 20.2
2004-03-08 13:05:10 51°8.545 2°34.258 58.9 4 61 20.3
2004-03-08 13:06:10 51°8.574 2°34.343 64.1 3.3 64 20.1
2004-03-08 13:07:09 51°8.594 2°34.412 63.8 2.7 65 20.4
2004-03-08 13:08:11 51°8.611 2°34.476 68 2.5 69 20
2004-03-08 13:09:10 51°8.64 2°34.56 46.5 5.3 47 20.1
2004-03-08 13:10:10 51°8.701 2°34.686 69.8 5.5 64 19.7
2004-03-08 13:11:10 51°8.719 2°34.8 97.5 4 82 19.9
2004-03-08 13:12:11 51°8.725 2°34.893 113.2 3.2 87 19.7
2004-03-08 13:13:09 51°8.725 2°34.967 125.9 2.6 95 18.9
2004-03-08 13:14:10 51°8.725 2°35.036 134.2 2.5 90 18.4
2004-03-08 13:15:09 51°8.724 2°35.096 140.3 2.2 94 17.9
2004-03-08 13:16:11 51°8.722 2°35.156 144.7 2 92 17.5
2004-03-08 13:17:09 51°8.706 2°35.209 178.8 3 156 16.2
2004-03-08 13:18:09 51°8.674 2°35.158 257.7 4.3 258 15.5
2004-03-08 13:19:09 51°8.66 2°34.971 267.7 8.4 269 17.3
2004-03-08 13:20:10 51°8.644 2°34.742 259.6 8.6 258 19.1
2004-03-08 13:21:11 51°8.622 2°34.539 259.8 6.1 260 20
2004-03-08 13:22:11 51°8.613 2°34.413 261.6 3.8 267 20.2
2004-03-08 13:23:11 51°8.611 2°34.342 259.1 1.6 274 20.5
2004-03-08 13:24:09 51°8.62 2°34.317 269.7 1.1 302 20.3
2004-03-08 13:25:09 51°8.634 2°34.305 275.8 1.1 342 20.1
2004-03-08 13:26:09 51°8.65 2°34.3 284.1 1.1 359 20.3
2004-03-08 13:27:11 51°8.671 2°34.306 295 1.3 13 20.2
2004-03-08 13:28:10 51°8.692 2°34.318 301.8 1.3 21 19.9
2004-03-08 13:29:09 51°8.715 2°34.329 304.3 1.5 11 20.2
2004-03-08 13:30:11 51°8.743 2°34.334 303.7 1.5 7 20.3
2004-03-08 13:31:10 51°8.77 2°34.334 296.8 1.6 356 20.4
2004-03-08 13:32:11 51°8.793 2°34.332 278.2 1.2 357 19.9
2004-03-08 13:33:11 51°8.808 2°34.333 258.3 0.7 11 19.7
2004-03-08 13:34:10 51°8.814 2°34.34 236.8 0.5 74 19.7
2004-03-08 13:35:09 51°8.814 2°34.356 214.8 0.9 99 19.9
2004-03-08 13:36:10 51°8.809 2°34.386 188.9 1.5 103 19.9
2004-03-08 13:37:11 51°8.804 2°34.433 165.2 1.9 96 19.9
2004-03-08 13:38:11 51°8.799 2°34.499 135.6 3.8 104 20.3
2004-03-08 13:39:11 51°8.797 2°34.724 91.3 12.9 79 19.7
2004-03-08 13:40:09 51°8.886 2°35.074 73.3 15.3 67 19.4
2004-03-08 13:41:11 51°8.992 2°35.464 73.2 15.5 68 19.2
2004-03-08 13:42:10 51°9.09 2°35.838 73.6 15.5 68 19.2
2004-03-08 13:43:09 51°9.186 2°36.212 74.3 15.5 68 18.5
2004-03-08 13:44:10 51°9.284 2°36.6 73.3 15.5 68 18.3
2004-03-08 13:45:09 51°9.379 2°36.973 73.9 15.4 68 17.5
2004-03-08 13:46:10 51°9.477 2°37.361 74.1 15.5 68 16.8
2004-03-08 13:47:11 51°9.574 2°37.748 74.5 15.5 69 16.5
2004-03-08 13:48:10 51°9.665 2°38.125 74 15.4 68 16
2004-03-08 13:49:11 51°9.758 2°38.514 74.7 15.4 69 15.7
2004-03-08 13:50:10 51°9.849 2°38.888 73.8 15.4 68 15.4
2004-03-08 13:51:11 51°9.943 2°39.275 74.5 15.5 69 15
2004-03-08 13:52:10 51°10.034 2°39.651 74.1 15.5 69 14.7
2004-03-08 13:53:10 51°10.124 2°40.036 74.2 15.5 70 14.9
2004-03-08 13:54:09 51°10.212 2°40.415 74.6 15.5 70 14.8
2004-03-08 13:55:11 51°10.318 2°40.802 69.7 15.5 65 14.8
2004-03-08 13:56:10 51°10.419 2°41.168 72.3 15.2 68 14.7
2004-03-08 13:57:10 51°10.518 2°41.539 72.2 15.1 68 14.8
2004-03-08 13:58:10 51°10.614 2°41.909 72.7 15.1 68 15
2004-03-08 13:59:10 51°10.709 2°42.279 72.5 15 67 15.1
2004-03-08 14:00:09 51°10.803 2°42.643 72.9 15.1 69 15
2004-03-08 14:01:11 51°10.902 2°43.023 72.5 15 67 15
2004-03-08 14:02:10 51°10.994 2°43.385 72.3 15.1 68 15.1
2004-03-08 14:03:11 51°11.091 2°43.761 72.5 15.1 68 15.2
2004-03-08 14:04:11 51°11.187 2°44.131 72.5 15.1 68 15.2
2004-03-08 14:05:11 51°11.282 2°44.503 72.2 15.1 68 15.3
2004-03-08 14:06:11 51°11.378 2°44.876 72.6 15.2 68 15.4
2004-03-08 14:07:10 51°11.473 2°45.242 72.6 15.2 67 15.4
2004-03-08 14:08:09 51°11.574 2°45.605 67.2 15.2 63 15.5
2004-03-08 14:09:09 51°11.687 2°45.965 67 15.3 63 15.7
2004-03-08 14:10:11 51°11.805 2°46.338 67.2 15.3 64 15.4
2004-03-08 14:11:10 51°11.918 2°46.693 67.5 15.3 62 15.6
2004-03-08 14:12:09 51°12.03 2°47.048 67.2 15.4 63 15.5
2004-03-08 14:13:09 51°12.144 2°47.411 67.5 15.3 64 15.5
2004-03-08 14:14:11 51°12.263 2°47.785 67 15.3 63 15.4
2004-03-08 14:15:11 51°12.378 2°48.147 67.1 15.2 62 15.2
2004-03-08 14:16:11 51°12.494 2°48.507 67 15.3 62 15
2004-03-08 14:17:09 51°12.61 2°48.854 65.1 15.3 61 14.9
2004-03-08 14:18:11 51°12.736 2°49.221 65.1 15.4 61 14.8
2004-03-08 14:19:11 51°12.862 2°49.577 64.8 15.5 60 14.7
2004-03-08 14:20:10 51°12.984 2°49.931 66 15.5 61 14.3
2004-03-08 14:21:11 51°13.11 2°50.296 65.3 15.3 61 14.3
2004-03-08 14:22:10 51°13.23 2°50.644 65.1 15.1 60 14.2
2004-03-08 14:23:10 51°13.355 2°51 65.6 15.4 61 14.1
2004-03-08 14:24:11 51°13.484 2°51.364 65.2 15.5 61 14
2004-03-08 14:25:09 51°13.605 2°51.707 64.9 15.3 60 13.8
2004-03-08 14:26:11 51°13.733 2°52.073 65.9 15.3 61 13.6
2004-03-08 14:27:10 51°13.838 2°52.372 65.4 11.3 61 13.7
2004-03-08 14:28:10 51°13.951 2°52.695 64 15.2 59 13.6
2004-03-08 14:29:11 51°14.066 2°53.065 72.8 15.3 68 13.1
2004-03-08 14:30:10 51°14.149 2°53.438 76.3 15.1 72 12.6
2004-03-08 14:31:10 51°14.221 2°53.824 79.3 15.2 75 12.2
2004-03-08 14:32:11 51°14.28 2°54.224 85.6 15.2 79 12
2004-03-08 14:33:10 51°14.326 2°54.606 83.7 14.4 76 11.7
2004-03-08 14:34:11 51°14.356 2°54.976 97 13.4 92 11.7
2004-03-08 14:35:11 51°14.267 2°55.25 131.6 10.6 130 -999
2004-03-08 14:36:11 51°14.155 2°55.397 150.3 8 148 14
2004-03-08 14:37:10 51°14.046 2°55.479 158.9 7.2 157 13.6
2004-03-08 14:38:09 51°13.94 2°55.556 158.3 6.9 156 12.7
2004-03-08 14:39:11 51°13.836 2°55.63 159.1 6.5 155 12.7
2004-03-08 14:40:11 51°13.75 2°55.721 139.8 6.2 136 12.2
2004-03-08 14:41:11 51°13.688 2°55.839 128.7 5.2 126 11.8
2004-03-08 14:42:11 51°13.645 2°55.942 126.1 4.4 122 12
2004-03-08 14:43:11 51°13.612 2°56.033 123.4 3.8 119 12.5
2004-03-08 14:44:11 51°13.594 2°56.103 116.1 1.3 112 9.9
2004-03-08 14:45:09 51°13.593 2°56.108 124.8   56 9.9
2004-03-08 14:46:11 51°13.593 2°56.108 127.7   199 9.9